Time;durP1;ratioP1;P1;durP2;ratioP2;P2;SDS_P1;SDS_P2;PMS_P1;PMS_P2;Temp;Humidity;BMP_temperature;BMP_pressure;BME280_temperature;BME280_humidity;BME280_pressure;Samples;Min_cycle;Max_cycle;Signal;HPM_P1;HPM_P2
2024/04/24 00:06:54;;;;;;;;;;;1.20;99.90;;;;;;22818014;26;20291;-76
2024/04/24 00:16:54;;;;;;;;;;;1.30;99.90;;;;;;22817004;26;19935;-76
2024/04/24 00:26:58;;;;;;;;;;;1.10;99.90;;;;;;22803947;26;19996;-76
2024/04/24 00:36:58;;;;;;;;;;;1.00;99.90;;;;;;22813202;26;19934;-76
2024/04/24 00:47:00;;;;;;;;;;;0.90;99.90;;;;;;22814851;26;19927;-76
2024/04/24 00:57:01;;;;;;;;;;;0.70;99.90;;;;;;22803060;26;19936;-76
2024/04/24 01:07:02;;;;;;;;;;;0.60;99.90;;;;;;22826280;26;20466;-76
2024/04/24 01:17:04;;;;;;;;;;;0.40;99.90;;;;;;22812489;26;19953;-76
2024/04/24 01:27:05;;;;;;;;;;;0.50;99.90;;;;;;22802173;26;20364;-76
2024/04/24 01:37:05;;;;;;;;;;;0.30;99.90;;;;;;22808894;26;20008;-76
2024/04/24 01:47:06;;;;;;;;;;;0.00;99.90;;;;;;22812992;26;19927;-76
2024/04/24 01:57:07;;;;;;;;;;;0.30;99.90;;;;;;22823112;26;19935;-76
2024/04/24 02:07:07;;;;;;;;;;;0.20;99.90;;;;;;22815209;26;19939;-76
2024/04/24 02:17:08;;;;;;;;;;;-0.20;99.90;;;;;;22821945;26;19939;-76
2024/04/24 02:27:08;;;;;;;;;;;-0.10;99.90;;;;;;22814997;26;19928;-76
2024/04/24 02:37:09;;;;;;;;;;;-0.10;99.90;;;;;;22820291;26;19935;-76
2024/04/24 02:47:10;;;;;;;;;;;0.00;99.90;;;;;;22810767;26;19928;-76
2024/04/24 02:57:10;;;;;;;;;;;0.00;99.90;;;;;;22833940;26;19928;-76
2024/04/24 03:07:11;;;;;;;;;;;0.10;99.90;;;;;;22823971;26;19928;-76
2024/04/24 03:17:12;;;;;;;;;;;0.50;99.90;;;;;;22829433;26;19956;-76
2024/04/24 03:27:12;;;;;;;;;;;0.70;99.90;;;;;;22811878;26;19935;-76
2024/04/24 03:37:13;;;;;;;;;;;0.80;99.90;;;;;;22815019;26;19936;-76
2024/04/24 03:47:14;;;;;;;;;;;0.90;99.90;;;;;;22825338;26;19939;-76
2024/04/24 03:57:14;;;;;;;;;;;1.10;99.90;;;;;;22818219;26;19953;-76
2024/04/24 04:07:15;;;;;;;;;;;1.20;99.90;;;;;;22843881;25;19997;-76
2024/04/24 04:17:15;;;;;;;;;;;1.20;99.90;;;;;;22807464;26;19977;-76
2024/04/24 04:27:16;;;;;;;;;;;1.30;99.90;;;;;;22856200;26;19947;-77
2024/04/24 04:37:17;;;;;;;;;;;1.30;99.90;;;;;;22863677;26;19961;-77
2024/04/24 04:47:18;;;;;;;;;;;1.30;99.90;;;;;;22722042;26;19934;-76
2024/04/24 04:57:18;;;;;;;;;;;1.40;99.90;;;;;;22710263;26;19928;-77
2024/04/24 05:07:19;;;;;;;;;;;1.40;99.90;;;;;;22721377;26;19927;-76
2024/04/24 05:17:20;;;;;;;;;;;1.60;99.90;;;;;;22677680;26;19928;-76
2024/04/24 05:37:40;;;;;;;;;;;1.70;99.90;;;;;;22724001;26;19928;-76
2024/04/24 05:47:40;;;;;;;;;;;1.70;99.90;;;;;;22723568;26;19939;-76
2024/04/24 05:57:41;;;;;;;;;;;1.80;99.90;;;;;;22723309;26;20323;-76
2024/04/24 06:07:42;;;;;;;;;;;2.10;99.90;;;;;;22722277;26;20355;-76
2024/04/24 06:17:43;;;;;;;;;;;2.00;99.90;;;;;;22721459;26;19977;-76
2024/04/24 06:27:43;;;;;;;;;;;2.10;99.90;;;;;;22720727;26;19996;-76
2024/04/24 06:37:44;;;;;;;;;;;2.40;99.90;;;;;;22720335;26;19935;-76
2024/04/24 06:47:44;;;;;;;;;;;2.60;99.90;;;;;;22720058;26;19928;-75
2024/04/24 06:57:45;;;;;;;;;;;2.60;99.90;;;;;;22719286;26;19968;-75
2024/04/24 07:07:46;;;;;;;;;;;3.00;99.90;;;;;;22719772;26;19932;-76
2024/04/24 07:17:46;;;;;;;;;;;3.80;99.90;;;;;;22718214;26;19928;-76
2024/04/24 07:27:47;;;;;;;;;;;5.20;99.90;;;;;;22686099;26;19928;-76
2024/04/24 07:37:47;;;;;;;;;;;5.40;99.90;;;;;;22717558;26;19943;-76
2024/04/24 07:47:48;;;;;;;;;;;5.80;99.90;;;;;;22715557;26;19940;-76
2024/04/24 07:57:49;;;;;;;;;;;6.80;99.90;;;;;;22716417;26;19936;-76
2024/04/24 08:07:49;;;;;;;;;;;7.20;99.90;;;;;;22714857;26;19966;-76
2024/04/24 08:17:50;;;;;;;;;;;8.00;99.90;;;;;;22715697;26;20569;-76
2024/04/24 08:27:51;;;;;;;;;;;8.10;99.90;;;;;;22818936;26;19928;-76
2024/04/24 08:37:51;;;;;;;;;;;9.00;99.90;;;;;;22865458;26;20276;-76
2024/04/24 08:47:52;;;;;;;;;;;9.70;99.90;;;;;;22866016;26;20278;-76
2024/04/24 08:57:53;;;;;;;;;;;9.90;99.90;;;;;;22864076;26;19927;-76
2024/04/24 09:07:55;;;;;;;;;;;9.40;99.90;;;;;;22864680;26;19934;-76
2024/04/24 09:17:55;;;;;;;;;;;9.00;99.90;;;;;;22863520;26;19934;-76
2024/04/24 09:27:56;;;;;;;;;;;8.60;99.90;;;;;;22862126;26;19928;-77
2024/04/24 09:37:57;;;;;;;;;;;8.20;99.90;;;;;;22755508;26;19928;-77
2024/04/24 09:47:58;;;;;;;;;;;7.80;99.90;;;;;;22708221;26;19940;-76
2024/04/24 09:57:59;;;;;;;;;;;7.60;99.90;;;;;;22707895;26;19928;-76
2024/04/24 10:08:04;;;;;;;;;;;7.70;99.90;;;;;;22704525;26;19928;-76
2024/04/24 10:18:06;;;;;;;;;;;7.90;99.90;;;;;;22721302;26;19965;-76
2024/04/24 10:28:07;;;;;;;;;;;7.70;99.90;;;;;;22721083;26;19935;-76
2024/04/24 10:38:08;;;;;;;;;;;7.60;99.90;;;;;;22720485;26;19928;-76
2024/04/24 10:48:10;;;;;;;;;;;7.70;99.90;;;;;;22720054;26;19934;-76
2024/04/24 10:58:19;;;;;;;;;;;7.80;99.90;;;;;;22720758;26;20226;-76
2024/04/24 11:08:20;;;;;;;;;;;7.70;99.90;;;;;;22719598;26;20362;-76
2024/04/24 11:18:22;;;;;;;;;;;7.40;99.90;;;;;;22718875;26;19928;-76
2024/04/24 11:28:25;;;;;;;;;;;6.70;99.90;;;;;;22716322;26;19940;-76
2024/04/24 11:38:26;;;;;;;;;;;6.60;99.90;;;;;;22717119;26;19928;-77
2024/04/24 11:48:27;;;;;;;;;;;6.60;99.90;;;;;;22716572;26;19928;-76
2024/04/24 11:58:28;;;;;;;;;;;6.40;99.90;;;;;;22715935;26;20359;-76
2024/04/24 12:08:29;;;;;;;;;;;6.10;99.90;;;;;;22741096;26;19935;-77
2024/04/24 12:18:30;;;;;;;;;;;6.20;99.90;;;;;;22859296;26;20362;-76
2024/04/24 12:28:31;;;;;;;;;;;6.50;99.90;;;;;;22771320;26;19934;-76
2024/04/24 12:38:32;;;;;;;;;;;6.50;99.90;;;;;;22829722;26;20267;-76
2024/04/24 12:48:33;;;;;;;;;;;7.20;99.90;;;;;;22749989;26;19960;-76
2024/04/24 12:58:34;;;;;;;;;;;7.10;99.90;;;;;;22712356;26;20380;-77
2024/04/24 13:08:35;;;;;;;;;;;6.90;99.90;;;;;;22784210;26;19943;-76
2024/04/24 13:18:35;;;;;;;;;;;6.90;99.90;;;;;;22863133;26;19927;-76
2024/04/24 13:28:36;;;;;;;;;;;6.80;99.90;;;;;;22757889;26;20279;-76
2024/04/24 13:38:37;;;;;;;;;;;7.50;99.90;;;;;;22708686;26;19956;-77
2024/04/24 13:48:38;;;;;;;;;;;7.00;99.90;;;;;;22726912;26;19935;-77
2024/04/24 13:58:39;;;;;;;;;;;6.60;99.90;;;;;;22872675;26;19927;-77
2024/04/24 14:08:39;;;;;;;;;;;7.60;99.90;;;;;;22757739;26;19940;-77
2024/04/24 14:18:40;;;;;;;;;;;7.60;99.90;;;;;;22728045;26;20397;-77
2024/04/24 14:28:41;;;;;;;;;;;7.50;99.90;;;;;;22724263;26;19960;-77
2024/04/24 14:38:43;;;;;;;;;;;7.30;99.90;;;;;;22770969;26;19935;-78
2024/04/24 14:48:43;;;;;;;;;;;7.30;99.90;;;;;;22873699;26;19939;-77
2024/04/24 14:58:44;;;;;;;;;;;8.20;99.90;;;;;;22871346;26;19927;-77
2024/04/24 15:08:44;;;;;;;;;;;8.30;99.90;;;;;;22799341;26;19996;-77
2024/04/24 15:18:47;;;;;;;;;;;8.00;99.90;;;;;;22761959;26;19928;-77
2024/04/24 15:28:48;;;;;;;;;;;8.40;99.90;;;;;;22721359;26;20323;-77
2024/04/24 15:38:49;;;;;;;;;;;7.70;99.90;;;;;;22809893;26;19928;-78
2024/04/24 15:48:50;;;;;;;;;;;7.80;99.90;;;;;;22870742;26;19991;-78
2024/04/24 15:58:50;;;;;;;;;;;7.90;99.90;;;;;;22871045;26;19931;-76
2024/04/24 16:08:51;;;;;;;;;;;7.80;99.90;;;;;;22803537;26;19998;-77
2024/04/24 16:18:51;;;;;;;;;;;7.40;99.90;;;;;;22719442;26;19928;-78
2024/04/24 16:28:52;;;;;;;;;;;7.10;99.90;;;;;;22714549;26;19928;-78
2024/04/24 16:38:53;;;;;;;;;;;6.70;99.90;;;;;;22717129;26;19939;-77
2024/04/24 16:48:54;;;;;;;;;;;6.60;99.90;;;;;;22772268;25;20468;-75
2024/04/24 16:58:54;;;;;;;;;;;6.50;99.90;;;;;;22770184;26;19927;-74
2024/04/24 17:08:55;;;;;;;;;;;6.30;99.90;;;;;;22750654;26;19947;-76
2024/04/24 17:18:59;;;;;;;;;;;6.20;99.90;;;;;;22787548;26;19936;-75
2024/04/24 17:29:00;;;;;;;;;;;6.30;99.90;;;;;;22780819;26;20359;-76
2024/04/24 17:39:01;;;;;;;;;;;6.10;99.90;;;;;;22787337;26;19943;-76
2024/04/24 17:49:03;;;;;;;;;;;6.00;99.90;;;;;;22834327;26;19932;-74
2024/04/24 17:59:04;;;;;;;;;;;5.90;99.90;;;;;;22801039;26;19928;-75
2024/04/24 18:09:04;;;;;;;;;;;5.70;99.90;;;;;;22785502;26;19935;-74
2024/04/24 18:19:05;;;;;;;;;;;5.40;99.90;;;;;;22782526;26;19928;-75
2024/04/24 18:29:06;;;;;;;;;;;5.20;99.90;;;;;;22772922;26;19939;-76
2024/04/24 18:39:07;;;;;;;;;;;4.80;99.90;;;;;;22803420;26;19939;-77
2024/04/24 18:49:08;;;;;;;;;;;4.60;99.90;;;;;;22831128;26;19934;-74
2024/04/24 18:59:11;;;;;;;;;;;4.40;99.90;;;;;;22854261;26;20217;-77
2024/04/24 19:09:12;;;;;;;;;;;4.40;99.90;;;;;;22866600;26;19934;-75
2024/04/24 19:19:12;;;;;;;;;;;4.40;99.90;;;;;;22832859;26;19927;-77
2024/04/24 19:29:13;;;;;;;;;;;4.50;99.90;;;;;;22813088;26;19935;-77
2024/04/24 19:39:14;;;;;;;;;;;4.50;99.90;;;;;;22811636;26;20419;-76
2024/04/24 19:49:15;;;;;;;;;;;4.50;99.90;;;;;;22782183;26;19953;-76
2024/04/24 19:59:15;;;;;;;;;;;4.50;99.90;;;;;;22767111;26;19935;-76
2024/04/24 20:09:16;;;;;;;;;;;4.40;99.90;;;;;;22837671;26;19978;-77
2024/04/24 20:19:17;;;;;;;;;;;4.20;99.90;;;;;;22850897;26;20347;-78
2024/04/24 20:29:18;;;;;;;;;;;4.00;99.90;;;;;;22837927;26;19928;-77
2024/04/24 20:39:18;;;;;;;;;;;4.00;99.90;;;;;;22844321;26;19934;-78
2024/04/24 20:49:20;;;;;;;;;;;4.10;99.90;;;;;;22877677;26;20301;-78
2024/04/24 20:59:22;;;;;;;;;;;4.10;99.90;;;;;;22879039;26;19935;-78
2024/04/24 21:09:23;;;;;;;;;;;3.90;99.90;;;;;;22845258;26;19935;-77
2024/04/24 21:19:24;;;;;;;;;;;3.90;99.90;;;;;;22842735;26;19928;-78
2024/04/24 21:29:24;;;;;;;;;;;3.90;99.90;;;;;;22813422;26;20263;-77
2024/04/24 21:39:25;;;;;;;;;;;4.00;99.90;;;;;;22824993;26;20364;-78
2024/04/24 21:49:26;;;;;;;;;;;4.10;99.90;;;;;;22820118;26;19938;-79
2024/04/24 21:59:32;;;;;;;;;;;4.00;99.90;;;;;;22780982;26;19928;-78
2024/04/24 22:09:32;;;;;;;;;;;4.00;99.90;;;;;;22841935;26;19928;-78
2024/04/24 22:19:33;;;;;;;;;;;4.00;99.90;;;;;;22824657;26;19940;-76
2024/04/24 22:29:34;;;;;;;;;;;3.90;99.90;;;;;;22833667;26;19928;-77
2024/04/24 22:39:34;;;;;;;;;;;3.80;99.90;;;;;;22828081;26;19995;-77
2024/04/24 22:49:35;;;;;;;;;;;3.60;99.90;;;;;;22818777;26;19935;-77
2024/04/24 22:59:36;;;;;;;;;;;3.40;99.90;;;;;;22828212;26;19936;-77
2024/04/24 23:09:36;;;;;;;;;;;3.40;99.90;;;;;;22840430;26;19931;-77
2024/04/24 23:19:37;;;;;;;;;;;3.40;99.90;;;;;;22800496;26;20448;-77
2024/04/24 23:29:37;;;;;;;;;;;3.30;99.90;;;;;;22834121;26;19951;-77
2024/04/24 23:39:38;;;;;;;;;;;3.20;99.90;;;;;;22823898;26;19938;-77
2024/04/24 23:49:39;;;;;;;;;;;3.20;99.90;;;;;;22825677;26;20274;-76
2024/04/24 23:59:39;;;;;;;;;;;3.10;99.90;;;;;;22816365;26;19928;-78
